createdAt,value
2018-05-04T00:01:07.488Z,8.27
2018-05-04T00:01:54.979Z,8.34
2018-05-04T00:02:58.912Z,8.34
2018-05-04T00:04:16.454Z,8.34
2018-05-04T00:04:53.980Z,8.27
2018-05-04T00:05:53.575Z,8.34
2018-05-04T00:08:46.819Z,8.34
2018-05-04T00:09:25.834Z,8.28
2018-05-04T00:11:57.585Z,8.31
2018-05-04T00:12:56.931Z,8.18
2018-05-04T00:13:57.589Z,8.27
2018-05-04T00:14:58.085Z,8.12
2018-05-04T00:16:00.086Z,8.13
2018-05-04T00:16:58.084Z,8.21
2018-05-04T00:17:58.082Z,8.25
2018-05-04T00:20:29.829Z,8.04
2018-05-04T00:21:29.847Z,8.13
2018-05-04T00:22:29.831Z,8.18
2018-05-04T00:23:36.331Z,8.00
2018-05-04T00:24:51.339Z,8.09
2018-05-04T00:25:38.308Z,8.04
2018-05-04T00:26:51.331Z,8.06
2018-05-04T00:27:30.831Z,8.00
2018-05-04T00:28:51.831Z,7.94
2018-05-04T00:29:31.826Z,7.88
2018-05-04T00:30:51.832Z,7.89
2018-05-04T00:31:30.430Z,7.86
2018-05-04T00:32:32.263Z,7.89
2018-05-04T00:33:32.332Z,7.79
2018-05-04T00:34:30.672Z,7.84
2018-05-04T00:35:31.330Z,7.82
2018-05-04T00:38:24.104Z,7.91
2018-05-04T00:39:24.113Z,8.04
2018-05-04T00:40:15.413Z,8.02
2018-05-04T00:41:03.611Z,7.99
2018-05-04T00:42:03.611Z,7.88
2018-05-04T00:43:03.590Z,7.88
2018-05-04T00:44:03.610Z,7.89
2018-05-04T00:45:03.204Z,7.89
2018-05-04T00:46:25.111Z,7.94
2018-05-04T00:47:04.111Z,7.89
2018-05-04T00:48:04.110Z,7.81
2018-05-04T00:49:18.611Z,7.73
2018-05-04T00:50:04.610Z,7.69
2018-05-04T00:51:05.609Z,7.66
2018-05-04T00:52:04.083Z,7.62
2018-05-04T00:53:05.110Z,7.52
2018-05-04T00:54:05.112Z,7.62
2018-05-04T00:55:05.117Z,7.62
2018-05-04T00:56:05.114Z,7.52
2018-05-04T00:58:57.849Z,7.63
2018-05-04T00:59:38.829Z,7.73
2018-05-04T01:00:59.859Z,7.67
2018-05-04T01:01:45.804Z,7.54
2018-05-04T01:02:36.534Z,7.55
2018-05-04T01:04:02.788Z,7.50
2018-05-04T01:04:36.694Z,7.57
2018-05-04T01:05:58.356Z,7.51
2018-05-04T01:06:37.355Z,7.62
2018-05-04T01:09:30.105Z,7.55
2018-05-04T01:10:09.106Z,7.62
2018-05-04T01:11:10.582Z,7.45
2018-05-04T01:12:38.040Z,7.50
2018-05-04T01:16:33.450Z,7.34
2018-05-04T01:17:14.456Z,7.39
2018-05-04T01:18:12.457Z,7.39
2018-05-04T01:20:44.215Z,7.33
2018-05-04T01:21:44.213Z,7.37
2018-05-04T01:22:45.250Z,7.44
2018-05-04T01:24:05.721Z,7.44
2018-05-04T01:25:05.719Z,7.45
2018-05-04T01:25:58.721Z,7.45
2018-05-04T01:26:44.721Z,7.44
2018-05-04T01:28:08.223Z,7.39
2018-05-04T01:30:38.530Z,7.47
2018-05-04T01:31:16.598Z,7.48
2018-05-04T01:32:38.033Z,7.39
2018-05-04T01:36:19.001Z,7.34
2018-05-04T01:37:19.746Z,7.36
2018-05-04T01:38:20.717Z,7.26
2018-05-04T01:39:20.244Z,7.26
2018-05-04T01:40:20.237Z,7.21
2018-05-04T01:41:20.241Z,7.26
2018-05-04T01:42:20.237Z,7.26
2018-05-04T01:46:23.418Z,7.33
2018-05-04T01:47:23.425Z,7.21
2018-05-04T01:48:23.425Z,7.26
2018-05-04T01:49:23.926Z,7.24
2018-05-04T01:50:25.363Z,7.23
2018-05-04T01:51:23.925Z,7.27
2018-05-04T01:52:23.925Z,7.24
2018-05-04T01:53:24.429Z,7.21
2018-05-04T01:54:24.438Z,7.24
2018-05-04T01:55:24.424Z,7.26
2018-05-04T01:56:24.467Z,7.19
2018-05-04T01:57:30.924Z,7.15
2018-05-04T01:58:24.926Z,7.19
2018-05-04T01:59:24.944Z,7.19
2018-05-04T02:00:45.926Z,7.19
2018-05-04T02:01:24.934Z,7.16
2018-05-04T02:02:47.361Z,7.19
2018-05-04T02:03:25.509Z,7.11
2018-05-04T02:04:25.426Z,7.14
2018-05-04T02:05:25.431Z,7.21
2018-05-04T02:06:25.039Z,7.14
2018-05-04T02:07:25.138Z,7.18
2018-05-04T02:08:25.923Z,7.21
2018-05-04T02:09:25.918Z,7.26
2018-05-04T02:10:26.430Z,7.24
2018-05-04T02:12:57.087Z,7.18
2018-05-04T02:13:57.806Z,7.21
2018-05-04T02:14:57.806Z,7.18
2018-05-04T02:17:52.588Z,7.15
2018-05-04T02:18:51.523Z,7.15
2018-05-04T02:19:29.590Z,7.15
2018-05-04T02:20:53.090Z,7.19
2018-05-04T02:21:32.068Z,7.16
2018-05-04T02:22:30.101Z,7.18
2018-05-04T02:23:34.023Z,7.19
2018-05-04T02:24:57.022Z,7.18
2018-05-04T02:27:24.958Z,7.14
2018-05-04T02:28:22.973Z,7.23
2018-05-04T02:29:01.963Z,7.16
2018-05-04T02:30:02.489Z,7.18
2018-05-04T02:31:03.895Z,7.19
2018-05-04T02:32:02.464Z,7.18
2018-05-04T02:33:02.463Z,7.19
2018-05-04T02:37:04.936Z,7.18
2018-05-04T02:38:07.101Z,7.27
2018-05-04T02:39:05.675Z,7.19
2018-05-04T02:40:28.166Z,7.16
2018-05-04T02:41:07.635Z,7.15
2018-05-04T02:42:27.171Z,7.12
2018-05-04T02:43:06.168Z,7.18
2018-05-04T02:44:27.672Z,7.16
2018-05-04T02:45:27.669Z,7.16
2018-05-04T02:46:27.675Z,7.14
2018-05-04T02:47:06.668Z,7.26
2018-05-04T02:49:39.373Z,7.23
2018-05-04T02:50:38.450Z,7.24
2018-05-04T02:52:03.880Z,7.18
2018-05-04T02:54:37.186Z,7.14
2018-05-04T02:55:30.527Z,7.19
2018-05-04T02:56:10.201Z,7.18
2018-05-04T02:57:10.194Z,7.11
2018-05-04T02:59:55.936Z,7.12
2018-05-04T03:00:41.407Z,7.11
2018-05-04T03:03:14.150Z,7.14
2018-05-04T03:04:36.156Z,7.15
2018-05-04T03:05:14.164Z,7.11
2018-05-04T03:07:45.901Z,7.15
2018-05-04T03:08:45.908Z,7.15
2018-05-04T03:09:45.908Z,7.08
2018-05-04T03:15:42.538Z,6.96
2018-05-04T03:17:52.819Z,7.05
2018-05-04T03:18:52.823Z,6.99
2018-05-04T03:19:52.827Z,6.90
2018-05-04T03:20:53.327Z,7.00
2018-05-04T03:21:53.357Z,6.93
2018-05-04T03:22:53.328Z,7.04
2018-05-04T03:23:53.330Z,7.12
2018-05-04T03:26:25.080Z,7.04
2018-05-04T03:27:48.087Z,7.00
2018-05-04T03:28:25.078Z,7.11
2018-05-04T03:32:28.251Z,7.05
2018-05-04T03:33:49.257Z,7.15
2018-05-04T03:34:28.262Z,7.16
2018-05-04T03:37:05.934Z,7.15
2018-05-04T03:39:38.950Z,7.12
2018-05-04T03:42:24.079Z,7.18
2018-05-04T03:43:24.086Z,7.12
2018-05-04T03:44:24.090Z,7.16
2018-05-04T03:45:23.670Z,7.01
2018-05-04T03:46:24.586Z,7.09
2018-05-04T03:47:32.059Z,7.04
2018-05-04T03:48:03.596Z,7.01
2018-05-04T03:49:11.019Z,6.86
2018-05-04T03:50:04.086Z,7.01
2018-05-04T03:51:26.018Z,7.08
2018-05-04T03:52:25.086Z,7.07
2018-05-04T03:53:25.085Z,7.01
2018-05-04T03:55:37.772Z,7.01
2018-05-04T03:58:21.324Z,7.09
2018-05-04T03:59:07.337Z,7.04
2018-05-04T04:00:09.330Z,7.04
2018-05-04T04:01:06.925Z,7.11
2018-05-04T04:02:07.835Z,7.00
2018-05-04T04:03:30.331Z,7.11
2018-05-04T04:04:07.828Z,7.14
2018-05-04T04:05:08.330Z,7.08
2018-05-04T04:06:08.330Z,7.04
2018-05-04T04:07:29.330Z,7.01
2018-05-04T04:08:29.330Z,7.15
2018-05-04T04:09:29.835Z,7.05
2018-05-04T04:10:10.262Z,7.14
2018-05-04T04:11:08.832Z,7.05
2018-05-04T04:12:08.830Z,7.09
2018-05-04T04:16:12.064Z,7.11
2018-05-04T04:17:12.072Z,7.09
2018-05-04T04:18:33.075Z,7.16
2018-05-04T04:21:05.752Z,7.23
2018-05-04T04:21:45.329Z,7.12
2018-05-04T04:22:49.821Z,7.24
2018-05-04T04:25:15.573Z,7.36
2018-05-04T04:26:15.583Z,7.36
2018-05-04T04:28:53.225Z,7.37
2018-05-04T04:30:08.219Z,7.45
2018-05-04T04:30:47.219Z,7.41
2018-05-04T04:33:19.045Z,7.52
2018-05-04T04:35:51.936Z,7.47
2018-05-04T04:39:53.434Z,7.52
2018-05-04T04:40:52.778Z,7.52
2018-05-04T04:42:14.445Z,7.63
2018-05-04T04:42:53.441Z,7.52
2018-05-04T04:44:15.873Z,7.69
2018-05-04T04:44:59.949Z,7.60
2018-05-04T04:45:53.301Z,7.73
2018-05-04T04:47:16.408Z,7.71
2018-05-04T04:48:17.440Z,7.66
2018-05-04T04:50:25.836Z,7.76
2018-05-04T04:51:26.827Z,7.73
2018-05-04T04:52:25.829Z,7.73
2018-05-04T04:54:57.571Z,7.82
2018-05-04T04:55:57.579Z,7.77
2018-05-04T04:56:57.579Z,7.86
2018-05-04T04:57:59.076Z,7.85
2018-05-04T04:58:57.296Z,7.85
2018-05-04T04:59:58.078Z,7.84
2018-05-04T05:01:00.078Z,7.86
2018-05-04T05:01:58.601Z,7.89
2018-05-04T05:03:00.041Z,7.85
2018-05-04T05:03:58.589Z,7.88
2018-05-04T05:04:58.576Z,7.86
2018-05-04T05:07:30.325Z,8.02
2018-05-04T05:08:31.804Z,8.04
2018-05-04T05:09:51.328Z,8.02
2018-05-04T05:10:53.329Z,8.17
2018-05-04T05:11:32.766Z,8.14
2018-05-04T05:12:30.828Z,8.21
2018-05-04T05:15:26.662Z,8.22
2018-05-04T05:17:33.662Z,8.40
2018-05-04T05:18:54.672Z,8.42
2018-05-04T05:19:33.676Z,8.50
2018-05-04T05:20:34.170Z,8.45
2018-05-04T05:21:36.170Z,8.63
2018-05-04T05:22:34.171Z,8.67
2018-05-04T05:23:34.245Z,8.65
2018-05-04T05:24:55.670Z,8.79
2018-05-04T05:25:34.667Z,8.79
2018-05-04T05:26:54.989Z,8.80
2018-05-04T05:27:34.669Z,8.86
2018-05-04T05:28:34.669Z,8.91
2018-05-04T05:29:37.223Z,8.94
2018-05-04T05:30:35.169Z,8.97
2018-05-04T05:31:35.168Z,8.96
2018-05-04T05:32:34.639Z,9.10
2018-05-04T05:33:35.668Z,9.16
2018-05-04T05:34:35.664Z,9.22
2018-05-04T05:35:35.713Z,9.24
2018-05-04T05:36:35.675Z,9.35
2018-05-04T05:37:36.177Z,9.37
2018-05-04T05:38:57.168Z,9.32
2018-05-04T05:39:36.178Z,9.50
2018-05-04T05:40:36.169Z,9.42
2018-05-04T05:43:28.928Z,9.65
2018-05-04T05:44:07.933Z,9.68
2018-05-04T05:45:07.403Z,9.75
2018-05-04T05:46:08.431Z,9.92
2018-05-04T05:47:08.438Z,9.89
2018-05-04T05:48:07.809Z,9.99
2018-05-04T05:49:08.436Z,10.01
2018-05-04T05:51:41.659Z,10.14
2018-05-04T05:52:55.664Z,10.25
2018-05-04T05:54:01.181Z,10.34
2018-05-04T05:56:11.932Z,10.44
2018-05-04T06:00:16.357Z,10.78
2018-05-04T06:01:14.907Z,11.01
2018-05-04T06:02:15.881Z,10.93
2018-05-04T06:03:16.863Z,11.03
2018-05-04T06:04:15.384Z,10.91
2018-05-04T06:05:15.383Z,11.12
2018-05-04T06:06:42.384Z,11.16
2018-05-04T06:07:36.383Z,11.20
2018-05-04T06:11:18.596Z,11.49
2018-05-04T06:12:18.601Z,11.60
2018-05-04T06:13:19.107Z,11.63
2018-05-04T06:14:19.100Z,11.64
2018-05-04T06:15:40.101Z,11.77
2018-05-04T06:16:18.575Z,11.78
2018-05-04T06:17:19.600Z,11.79
2018-05-04T06:18:18.837Z,11.88
2018-05-04T06:19:40.601Z,11.96
2018-05-04T06:20:41.108Z,12.04
2018-05-04T06:24:36.820Z,12.03
2018-05-04T06:25:22.814Z,12.11
2018-05-04T06:26:22.810Z,12.25
2018-05-04T06:29:15.577Z,12.40
2018-05-04T06:29:57.509Z,12.49
2018-05-04T06:30:56.017Z,12.49
2018-05-04T06:32:15.128Z,12.52
2018-05-04T06:34:25.662Z,12.70
2018-05-04T06:35:26.393Z,12.69
2018-05-04T06:36:26.395Z,12.74
2018-05-04T06:37:46.998Z,12.71
2018-05-04T06:38:47.081Z,12.67
2018-05-04T06:39:28.895Z,12.81
2018-05-04T06:40:26.896Z,12.66
2018-05-04T06:41:26.895Z,12.63
2018-05-04T06:42:48.398Z,12.76
2018-05-04T06:48:22.940Z,13.07
2018-05-04T06:49:15.937Z,13.21
2018-05-04T06:50:22.938Z,13.21
2018-05-04T06:51:25.438Z,13.35
2018-05-04T06:53:54.824Z,13.41
2018-05-04T06:54:33.849Z,13.47
2018-05-04T06:55:33.834Z,13.48
2018-05-04T06:58:05.600Z,13.63
2018-05-04T06:59:26.644Z,13.61
2018-05-04T07:00:26.071Z,13.76
2018-05-04T07:01:29.100Z,13.76
2018-05-04T07:02:05.328Z,13.87
2018-05-04T07:03:06.104Z,13.87
2018-05-04T07:04:06.104Z,13.81
2018-05-04T07:05:27.606Z,13.84
2018-05-04T07:06:06.601Z,13.94
2018-05-04T07:07:06.600Z,13.86
2018-05-04T07:08:06.608Z,13.99
2018-05-04T07:09:27.194Z,14.13
2018-05-04T07:10:06.306Z,14.19
2018-05-04T07:11:07.102Z,14.30
2018-05-04T07:12:28.100Z,14.49
2018-05-04T07:13:13.101Z,14.45
2018-05-04T07:15:52.868Z,14.54
2018-05-04T07:16:41.954Z,14.67
2018-05-04T07:19:10.507Z,14.75
2018-05-04T07:20:09.848Z,14.79
2018-05-04T07:21:31.508Z,14.67
2018-05-04T07:22:31.120Z,14.69
2018-05-04T07:23:10.224Z,14.80
2018-05-04T07:24:17.050Z,14.87
2018-05-04T07:25:34.943Z,14.91
2018-05-04T07:26:19.443Z,15.07
2018-05-04T07:28:44.792Z,15.20
2018-05-04T07:29:42.150Z,15.33
2018-05-04T07:30:42.858Z,15.34
2018-05-04T07:31:42.812Z,15.20
2018-05-04T07:34:16.628Z,15.15
2018-05-04T07:35:41.617Z,15.27
2018-05-04T07:36:16.614Z,15.38
2018-05-04T07:37:15.114Z,15.41
2018-05-04T07:38:16.579Z,15.46
2018-05-04T07:39:29.110Z,15.55
2018-05-04T07:40:15.119Z,15.52
2018-05-04T07:41:14.719Z,15.51
2018-05-04T07:42:36.610Z,15.76
2018-05-04T07:45:08.153Z,15.81
2018-05-04T07:45:47.155Z,15.93
2018-05-04T07:46:47.663Z,15.89
2018-05-04T07:48:08.671Z,15.95
2018-05-04T07:48:47.714Z,15.95
2018-05-04T07:49:47.655Z,16.01
2018-05-04T07:50:48.160Z,15.95
2018-05-04T07:51:47.397Z,15.98
2018-05-04T07:52:48.154Z,15.89
2018-05-04T07:55:19.904Z,16.04
2018-05-04T07:56:19.826Z,16.03
2018-05-04T07:57:19.826Z,16.04
2018-05-04T07:58:41.332Z,16.07
2018-05-04T07:59:19.595Z,16.08
2018-05-04T08:00:19.688Z,16.18
2018-05-04T08:01:41.322Z,16.23
2018-05-04T08:02:20.826Z,16.29
2018-05-04T08:03:20.051Z,16.22
2018-05-04T08:04:20.823Z,16.30
2018-05-04T08:05:41.825Z,16.40
2018-05-04T08:06:42.765Z,16.36
2018-05-04T08:07:20.503Z,16.47
2018-05-04T08:09:52.757Z,16.44
2018-05-04T08:10:52.767Z,16.55
2018-05-04T08:11:52.769Z,16.55
2018-05-04T08:12:53.268Z,16.62
2018-05-04T08:13:52.488Z,16.84
2018-05-04T08:16:46.253Z,16.52
2018-05-04T08:17:31.264Z,16.59
2018-05-04T08:18:45.601Z,16.57
2018-05-04T08:19:29.192Z,16.65
2018-05-04T08:20:24.830Z,16.70
2018-05-04T08:21:25.760Z,16.72
2018-05-04T08:22:25.766Z,16.72
2018-05-04T08:23:46.763Z,16.51
2018-05-04T08:24:25.760Z,16.62
2018-05-04T08:25:27.693Z,16.54
2018-05-04T08:26:26.260Z,16.55
2018-05-04T08:29:18.804Z,16.45
2018-05-04T08:29:57.828Z,16.54
2018-05-04T08:31:19.808Z,16.66
2018-05-04T08:31:58.313Z,16.82
2018-05-04T08:33:00.311Z,16.87
2018-05-04T08:33:57.661Z,16.95
2018-05-04T08:34:58.309Z,17.05
2018-05-04T08:35:57.910Z,17.14
2018-05-04T08:41:33.122Z,17.05
2018-05-04T08:42:54.121Z,17.18
2018-05-04T08:43:33.122Z,17.06
2018-05-04T08:44:56.049Z,17.10
2018-05-04T08:45:35.077Z,17.10
2018-05-04T08:46:32.921Z,17.09
2018-05-04T08:49:19.177Z,17.30
2018-05-04T08:51:56.971Z,17.21
2018-05-04T08:52:36.694Z,17.15
2018-05-04T08:53:36.164Z,17.15
2018-05-04T08:56:08.445Z,17.17
2018-05-04T08:57:29.485Z,17.45
2018-05-04T08:58:08.453Z,17.55
2018-05-04T09:00:54.207Z,17.55
2018-05-04T09:01:40.279Z,17.42
2018-05-04T09:02:40.217Z,17.38
2018-05-04T09:05:13.490Z,17.30
2018-05-04T09:06:25.980Z,17.55
2018-05-04T09:07:11.477Z,17.40
2018-05-04T09:08:11.567Z,17.35
2018-05-04T09:09:12.481Z,17.25
2018-05-04T09:10:35.477Z,17.25
2018-05-04T09:11:11.982Z,17.42
2018-05-04T09:12:26.977Z,17.57
2018-05-04T09:14:43.659Z,17.68
2018-05-04T09:17:17.874Z,17.91
2018-05-04T09:18:15.935Z,17.83
2018-05-04T09:19:15.933Z,17.76
2018-05-04T09:20:16.434Z,17.80
2018-05-04T09:21:16.453Z,17.92
2018-05-04T09:22:15.806Z,17.91
2018-05-04T09:23:16.433Z,17.77
2018-05-04T09:24:16.938Z,17.71
2018-05-04T09:25:16.997Z,17.70
2018-05-04T09:26:16.940Z,17.89
2018-05-04T09:27:16.934Z,18.09
2018-05-04T09:29:48.727Z,18.01
2018-05-04T09:32:20.242Z,18.28
2018-05-04T09:33:20.315Z,18.29
2018-05-04T09:34:19.742Z,18.10
2018-05-04T09:35:40.825Z,18.21
2018-05-04T09:36:22.752Z,18.21
2018-05-04T09:37:41.759Z,18.31
2018-05-04T09:38:26.757Z,18.10
2018-05-04T09:39:42.750Z,18.19
2018-05-04T09:41:51.836Z,18.36
2018-05-04T09:42:52.517Z,18.35
2018-05-04T09:43:54.493Z,18.39
2018-05-04T09:44:54.013Z,18.38
2018-05-04T09:45:53.023Z,18.54
2018-05-04T09:46:53.027Z,18.36
2018-05-04T09:47:53.017Z,18.31
2018-05-04T09:48:52.626Z,18.32
2018-05-04T09:49:53.969Z,18.32
2018-05-04T09:50:53.516Z,18.32
2018-05-04T09:51:53.932Z,18.21
2018-05-04T09:52:54.016Z,18.31
2018-05-04T09:53:53.243Z,18.25
2018-05-04T09:54:54.016Z,18.28
2018-05-04T09:55:53.590Z,18.20
2018-05-04T09:56:54.518Z,18.10
2018-05-04T09:57:54.516Z,18.01
2018-05-04T09:58:53.868Z,17.94
2018-05-04T09:59:55.455Z,17.99
2018-05-04T10:00:54.134Z,18.04
2018-05-04T10:01:55.020Z,18.28
2018-05-04T10:02:57.951Z,18.34
2018-05-04T10:03:55.017Z,18.57
2018-05-04T10:04:57.520Z,18.50
2018-05-04T10:06:15.751Z,18.57
2018-05-04T10:07:15.840Z,18.53
2018-05-04T10:08:18.517Z,18.50
2018-05-04T10:08:55.539Z,18.59
2018-05-04T10:09:55.134Z,18.62
2018-05-04T10:11:16.240Z,18.68
2018-05-04T10:12:17.038Z,18.83
2018-05-04T10:12:58.027Z,18.79
2018-05-04T10:13:56.018Z,18.86
2018-05-04T10:15:18.510Z,18.89
2018-05-04T10:15:56.556Z,18.82
2018-05-04T10:16:56.527Z,18.53
2018-05-04T10:17:56.521Z,18.59
2018-05-04T10:19:17.102Z,18.57
2018-05-04T10:21:48.671Z,18.28
2018-05-04T10:22:28.365Z,18.29
2018-05-04T10:23:28.369Z,18.25
2018-05-04T10:26:21.137Z,18.49
2018-05-04T10:26:59.491Z,18.53
2018-05-04T10:28:00.145Z,18.66
2018-05-04T10:29:14.684Z,18.90
2018-05-04T10:30:02.652Z,18.90
2018-05-04T10:31:14.646Z,18.76
2018-05-04T10:32:02.644Z,18.86
2018-05-04T10:33:22.145Z,18.82
2018-05-04T10:34:07.149Z,18.86
2018-05-04T10:35:22.146Z,18.86
2018-05-04T10:36:22.152Z,18.65
2018-05-04T10:37:07.644Z,18.51
2018-05-04T10:39:54.055Z,18.38
2018-05-04T10:40:33.063Z,18.53
2018-05-04T10:41:33.062Z,18.68
2018-05-04T10:42:32.663Z,18.71
2018-05-04T10:45:05.009Z,18.71
2018-05-04T10:46:04.961Z,18.75
2018-05-04T10:50:29.700Z,18.90
2018-05-04T10:51:10.639Z,18.87
2018-05-04T10:52:14.707Z,18.84
2018-05-04T10:53:09.638Z,18.78
2018-05-04T10:54:15.215Z,18.82
2018-05-04T10:55:29.418Z,18.91
2018-05-04T10:56:09.207Z,18.82
2018-05-04T10:57:09.213Z,19.05
2018-05-04T10:58:09.712Z,19.17
2018-05-04T10:59:29.940Z,19.21
2018-05-04T11:00:30.026Z,19.06
2018-05-04T11:01:30.112Z,18.87
2018-05-04T11:02:30.706Z,18.76
2018-05-04T11:03:12.249Z,18.97
2018-05-04T11:04:10.239Z,19.15
2018-05-04T11:05:12.207Z,19.30
2018-05-04T11:06:10.208Z,19.31
2018-05-04T11:07:09.812Z,19.38
2018-05-04T11:08:10.707Z,19.42
2018-05-04T11:09:10.715Z,19.50
2018-05-04T11:10:10.185Z,19.49
2018-05-04T11:13:02.499Z,19.61
2018-05-04T11:14:00.492Z,19.68
2018-05-04T11:18:02.773Z,20.01
2018-05-04T11:19:09.485Z,20.00
2018-05-04T11:20:04.442Z,20.04
2018-05-04T11:21:03.989Z,20.08
2018-05-04T11:22:25.051Z,20.23
2018-05-04T11:23:24.994Z,20.35
2018-05-04T11:24:24.996Z,20.40
2018-05-04T11:25:04.490Z,20.48
2018-05-04T11:26:26.471Z,20.23
2018-05-04T11:27:27.495Z,20.30
2018-05-04T11:28:04.486Z,20.42
2018-05-04T11:29:10.986Z,20.57
2018-05-04T11:30:04.215Z,20.72
2018-05-04T11:31:26.053Z,20.97
2018-05-04T11:32:04.983Z,20.91
2018-05-04T11:33:05.486Z,20.83
2018-05-04T11:34:04.732Z,20.75
2018-05-04T11:35:05.500Z,20.57
2018-05-04T11:36:04.975Z,20.51
2018-05-04T11:40:29.698Z,21.53
2018-05-04T11:41:08.704Z,21.70
2018-05-04T11:42:08.706Z,21.46
2018-05-04T11:43:30.206Z,21.75
2018-05-04T11:44:08.445Z,22.12
2018-05-04T11:45:29.554Z,22.36
2018-05-04T11:46:30.205Z,22.79
2018-05-04T11:47:15.699Z,22.89
2018-05-04T11:48:08.940Z,23.19
2018-05-04T11:49:09.705Z,23.39
2018-05-04T11:50:30.705Z,23.12
2018-05-04T11:51:30.297Z,23.03
2018-05-04T11:52:13.137Z,23.37
2018-05-04T11:53:10.216Z,23.60
2018-05-04T11:54:10.208Z,23.11
2018-05-04T11:55:09.870Z,22.57
2018-05-04T11:56:24.703Z,22.49
2018-05-04T11:57:31.048Z,22.49
2018-05-04T11:58:33.753Z,22.79
2018-05-04T12:00:45.410Z,23.26
2018-05-04T12:02:01.849Z,23.47
2018-05-04T12:02:45.154Z,23.53
2018-05-04T12:05:17.438Z,23.42
2018-05-04T12:06:17.437Z,22.84
2018-05-04T12:14:56.892Z,23.74
2018-05-04T12:15:50.896Z,23.68
2018-05-04T12:17:12.897Z,23.62
2018-05-04T12:20:53.439Z,24.19
2018-05-04T12:21:54.169Z,24.52
2018-05-04T12:22:54.174Z,24.52
2018-05-04T12:24:15.658Z,24.63
2018-05-04T12:24:54.663Z,25.05
2018-05-04T12:25:54.674Z,25.30
2018-05-04T12:26:54.663Z,24.97
2018-05-04T12:29:26.461Z,25.75
2018-05-04T12:30:26.463Z,24.97
2018-05-04T12:31:26.101Z,25.14
2018-05-04T12:32:26.951Z,25.54
2018-05-04T12:33:50.892Z,25.42
2018-05-04T12:34:41.457Z,25.82
2018-05-04T12:35:26.626Z,26.27
2018-05-04T12:36:27.459Z,26.41
2018-05-04T12:37:27.462Z,26.47
2018-05-04T12:38:27.542Z,26.49
2018-05-04T12:39:27.957Z,26.27
2018-05-04T12:42:01.810Z,26.93
2018-05-04T12:43:20.378Z,26.98
2018-05-04T12:43:59.381Z,26.81
2018-05-04T12:45:13.878Z,26.65
2018-05-04T12:47:30.584Z,26.16
2018-05-04T12:48:37.298Z,26.36
2018-05-04T12:49:37.298Z,26.53
2018-05-04T12:50:30.911Z,25.42
2018-05-04T12:51:31.024Z,25.72
2018-05-04T12:52:31.798Z,25.60
2018-05-04T12:55:24.496Z,26.24
2018-05-04T12:56:03.504Z,25.81
2018-05-04T12:57:02.989Z,25.75
2018-05-04T12:58:18.009Z,25.97
2018-05-04T13:00:35.955Z,24.98
2018-05-04T13:01:35.479Z,25.05
2018-05-04T13:02:56.071Z,24.93
2018-05-04T13:03:36.101Z,24.86
2018-05-04T13:04:56.966Z,24.77
2018-05-04T13:05:35.963Z,24.79
2018-05-04T13:06:35.586Z,24.45
2018-05-04T13:07:36.470Z,24.39
2018-05-04T13:08:58.461Z,24.66
2018-05-04T13:09:57.499Z,24.87
2018-05-04T13:12:22.694Z,24.97
2018-05-04T13:13:36.700Z,25.30
2018-05-04T13:14:30.695Z,25.05
2018-05-04T13:15:29.763Z,25.72
2018-05-04T13:19:13.539Z,25.78
2018-05-04T13:21:43.761Z,26.86
2018-05-04T13:22:43.253Z,27.34
2018-05-04T13:23:43.252Z,26.73
2018-05-04T13:24:44.755Z,26.61
2018-05-04T13:25:45.185Z,25.97
2018-05-04T13:26:57.756Z,26.35
2018-05-04T13:27:44.707Z,26.88
2018-05-04T13:30:40.439Z,25.46
2018-05-04T13:31:15.012Z,25.79
2018-05-04T13:32:16.009Z,26.03
2018-05-04T13:33:16.007Z,25.66
2018-05-04T13:34:16.013Z,25.96
2018-05-04T13:35:16.496Z,26.41
2018-05-04T13:36:16.505Z,26.49
2018-05-04T13:37:31.503Z,26.76
2018-05-04T13:38:16.909Z,25.83
2018-05-04T13:40:54.511Z,26.29
2018-05-04T13:41:48.217Z,25.91
2018-05-04T13:42:47.716Z,25.82
2018-05-04T13:43:50.186Z,25.89
2018-05-04T13:44:47.929Z,26.60
2018-05-04T13:45:48.717Z,27.23
2018-05-04T13:46:48.718Z,27.43
2018-05-04T13:47:48.364Z,27.43
2018-05-04T13:48:49.220Z,27.93
2018-05-04T13:49:50.148Z,27.90
2018-05-04T13:50:49.274Z,28.01
2018-05-04T13:51:55.714Z,27.59
2018-05-04T13:54:21.147Z,27.68
2018-05-04T13:55:21.155Z,26.83
2018-05-04T13:56:21.183Z,26.49
2018-05-04T13:57:21.655Z,26.61
2018-05-04T13:59:53.117Z,27.48
2018-05-04T14:00:52.480Z,27.76
2018-05-04T14:01:53.124Z,27.23
2018-05-04T14:03:14.624Z,27.72
2018-05-04T14:03:55.656Z,27.65
2018-05-04T14:05:07.636Z,27.03
2018-05-04T14:05:53.129Z,26.97
2018-05-04T14:08:24.684Z,27.63
2018-05-04T14:09:52.434Z,27.68
2018-05-04T14:10:25.426Z,28.06
2018-05-04T14:12:57.214Z,28.52
2018-05-04T14:13:57.221Z,28.21
2018-05-04T14:14:57.720Z,28.01
2018-05-04T14:17:31.017Z,27.71
2018-05-04T14:18:29.027Z,27.55
2018-05-04T14:19:29.030Z,27.65
2018-05-04T14:20:31.000Z,27.43
2018-05-04T14:21:29.527Z,27.21
2018-05-04T14:22:29.525Z,27.28
2018-05-04T14:23:29.525Z,26.98
2018-05-04T14:24:30.022Z,27.21
2018-05-04T14:27:01.477Z,27.48
2018-05-04T14:28:15.473Z,27.33
2018-05-04T14:29:28.482Z,26.96
2018-05-04T14:31:54.274Z,26.78
2018-05-04T14:32:53.620Z,25.79
2018-05-04T14:35:25.912Z,25.66
2018-05-04T14:36:04.917Z,25.61
2018-05-04T14:37:05.420Z,25.12
2018-05-04T14:38:05.418Z,25.29
2018-05-04T14:40:50.825Z,25.97
2018-05-04T14:41:57.835Z,25.85
2018-05-04T14:42:37.327Z,25.20
2018-05-04T14:45:10.756Z,25.17
2018-05-04T14:46:08.130Z,24.98
2018-05-04T14:47:10.761Z,25.19
2018-05-04T14:48:30.259Z,25.12
2018-05-04T14:49:30.478Z,24.97
2018-05-04T14:51:40.772Z,25.29
2018-05-04T14:52:40.781Z,25.49
2018-05-04T14:53:40.776Z,24.94
2018-05-04T14:55:02.276Z,25.38
2018-05-04T14:55:43.710Z,25.48
2018-05-04T14:56:40.627Z,25.60
2018-05-04T14:57:40.740Z,25.51
2018-05-04T15:00:40.055Z,24.79
2018-05-04T15:01:13.062Z,24.93
2018-05-04T15:02:13.062Z,25.08
2018-05-04T15:03:27.562Z,25.26
2018-05-04T15:05:45.001Z,24.64
2018-05-04T15:06:45.008Z,24.55
2018-05-04T15:07:45.008Z,24.56
2018-05-04T15:10:16.797Z,24.27
2018-05-04T15:11:16.806Z,24.06
2018-05-04T15:12:16.809Z,24.19
2018-05-04T15:13:17.304Z,24.15
2018-05-04T15:14:17.310Z,23.63
2018-05-04T15:15:39.236Z,23.39
2018-05-04T15:16:17.306Z,23.63
2018-05-04T15:17:17.807Z,23.56
2018-05-04T15:18:17.812Z,23.69
2018-05-04T15:19:18.765Z,23.57
2018-05-04T15:21:49.454Z,23.67
2018-05-04T15:22:48.816Z,23.56
2018-05-04T15:23:49.461Z,23.26
2018-05-04T15:26:21.254Z,22.85
2018-05-04T15:27:21.257Z,22.57
2018-05-04T15:28:21.273Z,22.52
2018-05-04T15:29:48.758Z,22.05
2018-05-04T15:30:21.758Z,21.89
2018-05-04T15:31:21.848Z,21.83
2018-05-04T15:32:22.259Z,21.73
2018-05-04T15:34:53.540Z,21.38
2018-05-04T15:35:53.549Z,21.19
2018-05-04T15:36:53.547Z,21.21
2018-05-04T15:37:54.058Z,21.27
2018-05-04T15:38:55.979Z,21.34
2018-05-04T15:39:54.107Z,21.30
2018-05-04T15:40:53.532Z,20.97
2018-05-04T15:43:25.803Z,20.71
2018-05-04T15:44:25.810Z,20.72
2018-05-04T15:46:57.465Z,20.56
2018-05-04T15:47:58.469Z,20.25
2018-05-04T15:50:29.193Z,19.78
2018-05-04T15:51:29.153Z,19.58
2018-05-04T15:52:29.153Z,19.71
2018-05-04T15:53:29.656Z,19.65
2018-05-04T15:54:29.656Z,19.62
2018-05-04T15:55:29.684Z,19.71
2018-05-04T15:56:30.155Z,19.79
2018-05-04T16:00:34.885Z,19.79
2018-05-04T16:01:53.902Z,19.70
2018-05-04T16:02:53.891Z,19.61
2018-05-04T16:04:00.392Z,19.75
2018-05-04T16:04:33.399Z,19.68
2018-05-04T16:05:33.392Z,19.75
2018-05-04T16:06:33.392Z,19.76
2018-05-04T16:07:35.910Z,19.71
2018-05-04T16:11:36.760Z,20.15
2018-05-04T16:12:36.765Z,20.01
2018-05-04T16:13:36.868Z,20.10
2018-05-04T16:14:37.258Z,20.10
2018-05-04T16:15:58.304Z,19.92
2018-05-04T16:16:37.261Z,19.92
2018-05-04T16:17:36.768Z,19.60
2018-05-04T16:18:39.195Z,19.62
2018-05-04T16:19:37.771Z,19.53
2018-05-04T16:21:00.759Z,19.25
2018-05-04T16:21:37.762Z,19.13
2018-05-04T16:24:09.578Z,19.10
2018-05-04T16:25:09.593Z,19.09
2018-05-04T16:26:10.581Z,19.01
2018-05-04T16:27:11.046Z,19.09
2018-05-04T16:30:02.456Z,18.94
2018-05-04T16:32:12.240Z,18.97
2018-05-04T16:33:33.988Z,18.93
2018-05-04T16:34:15.920Z,18.89
2018-05-04T16:36:44.749Z,18.82
2018-05-04T16:38:05.757Z,18.90
2018-05-04T16:39:05.758Z,18.90
2018-05-04T16:39:51.260Z,18.96
2018-05-04T16:40:44.480Z,18.97
2018-05-04T16:42:06.259Z,18.93
2018-05-04T16:42:45.255Z,18.93
2018-05-04T16:43:45.760Z,18.84
2018-05-04T16:44:45.757Z,18.90
2018-05-04T16:45:45.756Z,18.90
2018-05-04T16:46:45.233Z,18.83
2018-05-04T16:47:48.256Z,18.82